Time;durP1;ratioP1;P1;durP2;ratioP2;P2;SDS_P1;SDS_P2;PMS_P1;PMS_P2;Temp;Humidity;BMP_temperature;BMP_pressure;BME280_temperature;BME280_humidity;BME280_pressure;Samples;Min_cycle;Max_cycle;Signal;HPM_P1;HPM_P2
2023/02/11 00:08:05;;;;;;;1999.90;999.90;;;4.70;99.90;;;;;;6720243;88;20690;-75
2023/02/11 00:18:06;;;;;;;1999.90;999.90;;;4.60;99.90;;;;;;6720633;88;20186;-75
2023/02/11 00:28:07;;;;;;;1999.90;999.90;;;4.60;99.90;;;;;;6721165;88;20200;-76
2023/02/11 00:38:08;;;;;;;1999.90;999.90;;;4.70;99.90;;;;;;6717853;88;20243;-75
2023/02/11 00:48:08;;;;;;;1999.90;999.90;;;4.60;99.90;;;;;;6720874;88;21099;-77
2023/02/11 00:58:09;;;;;;;1999.90;999.90;;;4.50;99.90;;;;;;6723627;88;21000;-75
2023/02/11 01:08:09;;;;;;;1999.90;999.90;;;4.50;99.90;;;;;;6722053;88;20267;-75
2023/02/11 01:18:11;;;;;;;1999.90;999.90;;;4.40;99.90;;;;;;6724141;88;20327;-74
2023/02/11 01:28:16;;;;;;;1999.90;999.90;;;4.40;99.90;;;;;;6719235;88;20249;-75
2023/02/11 01:38:20;;;;;;;1999.90;999.90;;;4.20;99.90;;;;;;6727924;88;20222;-75
2023/02/11 01:48:40;;;;;;;1999.90;999.90;;;4.10;99.90;;;;;;6718610;88;20649;-78
2023/02/11 01:58:45;;;;;;;1999.90;999.90;;;3.90;99.90;;;;;;6723356;88;20228;-75
2023/02/11 02:08:57;;;;;;;1999.90;999.90;;;3.90;99.90;;;;;;6724765;88;20587;-74
2023/02/11 02:19:48;;;;;;;1999.90;999.90;;;3.70;99.90;;;;;;6723194;88;20201;-75
2023/02/11 02:30:11;;;;;;;1999.90;999.90;;;3.70;99.90;;;;;;6719835;88;20402;-75
2023/02/11 02:40:19;;;;;;;1999.90;999.90;;;3.70;99.90;;;;;;6720141;88;20272;-76
2023/02/11 02:50:29;;;;;;;1999.90;999.90;;;3.70;99.90;;;;;;6714423;88;20216;-75
2023/02/11 03:00:41;;;;;;;1999.90;999.90;;;3.70;99.90;;;;;;6716274;88;20797;-75
2023/02/11 03:10:46;;;;;;;1999.90;999.90;;;3.40;99.90;;;;;;6721704;88;20228;-75
2023/02/11 03:20:52;;;;;;;1999.90;999.90;;;3.20;99.90;;;;;;6721866;88;20194;-75
2023/02/11 03:31:00;;;;;;;1999.90;999.90;;;3.00;99.90;;;;;;6723581;88;20200;-75
2023/02/11 03:41:03;;;;;;;1999.90;999.90;;;2.90;99.90;;;;;;6720559;88;20492;-75
2023/02/11 03:51:08;;;;;;;1999.90;999.90;;;2.80;99.90;;;;;;6719995;88;20193;-75
2023/02/11 04:01:09;;;;;;;1999.90;999.90;;;2.80;99.90;;;;;;6717896;88;20245;-75
2023/02/11 04:11:09;;;;;;;1999.90;999.90;;;2.80;99.90;;;;;;6716616;88;20318;-75
2023/02/11 04:21:10;;;;;;;1999.90;999.90;;;2.70;99.90;;;;;;6719518;88;20197;-76
2023/02/11 04:31:11;;;;;;;1999.90;999.90;;;2.60;99.90;;;;;;6721534;88;20203;-76
2023/02/11 04:41:12;;;;;;;1999.90;999.90;;;2.50;99.90;;;;;;6723472;88;20272;-75
2023/02/11 04:51:12;;;;;;;1999.90;999.90;;;2.70;99.90;;;;;;6723286;88;20209;-75
2023/02/11 05:01:15;;;;;;;1999.90;999.90;;;2.60;99.90;;;;;;6719366;88;20937;-76
2023/02/11 05:11:18;;;;;;;1999.90;999.90;;;2.50;99.90;;;;;;6717415;88;20236;-76
2023/02/11 05:21:19;;;;;;;1999.90;999.90;;;2.60;99.90;;;;;;6719352;88;20182;-76
2023/02/11 05:31:19;;;;;;;1999.90;999.90;;;2.60;99.90;;;;;;6714787;88;20218;-76
2023/02/11 05:51:24;;;;;;;1999.90;999.90;;;2.80;99.90;;;;;;6762787;88;20205;-78
2023/02/11 06:01:25;;;;;;;1999.90;999.90;;;2.90;99.90;;;;;;6763669;88;20190;-79
2023/02/11 06:11:26;;;;;;;1999.90;999.90;;;3.10;99.90;;;;;;6761054;88;20259;-78
2023/02/11 06:21:26;;;;;;;1999.90;999.90;;;3.20;99.90;;;;;;6761552;88;20201;-77
2023/02/11 06:31:27;;;;;;;1999.90;999.90;;;3.20;99.90;;;;;;6761244;88;20193;-76
2023/02/11 06:41:28;;;;;;;1999.90;999.90;;;3.40;99.90;;;;;;6761113;88;20260;-76
2023/02/11 06:51:28;;;;;;;1999.90;999.90;;;3.50;99.90;;;;;;6760342;88;20261;-76
2023/02/11 07:01:29;;;;;;;1999.90;999.90;;;3.60;99.90;;;;;;6761964;88;20192;-76
2023/02/11 07:11:30;;;;;;;1999.90;999.90;;;3.80;99.90;;;;;;6761345;88;20554;-76
2023/02/11 07:21:31;;;;;;;1999.90;999.90;;;3.90;99.90;;;;;;6759735;88;20600;-78
2023/02/11 07:31:32;;;;;;;1999.90;999.90;;;3.90;99.90;;;;;;6755614;88;20722;-78
2023/02/11 07:41:34;;;;;;;1999.90;999.90;;;4.00;99.90;;;;;;6760425;88;20196;-76
2023/02/11 07:51:34;;;;;;;1999.90;999.90;;;4.10;99.90;;;;;;6760468;88;20221;-77
2023/02/11 08:01:35;;;;;;;1999.90;999.90;;;4.20;99.90;;;;;;6756949;88;20225;-76
2023/02/11 08:11:35;;;;;;;1999.90;999.90;;;4.40;99.90;;;;;;6757583;88;20176;-78
2023/02/11 08:21:36;;;;;;;1999.90;999.90;;;4.50;99.90;;;;;;6761109;88;20287;-78
2023/02/11 08:31:40;;;;;;;1999.90;999.90;;;4.70;99.90;;;;;;6757421;88;20229;-78
2023/02/11 08:41:40;;;;;;;1999.90;999.90;;;4.70;99.90;;;;;;6759917;88;20212;-76
2023/02/11 08:51:42;;;;;;;1999.90;999.90;;;4.60;99.90;;;;;;6758648;88;20177;-77
2023/02/11 09:01:42;;;;;;;1999.90;999.90;;;4.60;99.90;;;;;;6755001;88;20700;-79
2023/02/11 09:11:44;;;;;;;1999.90;999.90;;;4.60;99.90;;;;;;6748441;88;20238;-79
2023/02/11 09:21:45;;;;;;;1999.90;999.90;;;4.90;99.90;;;;;;6742025;88;20283;-81
2023/02/11 09:31:46;;;;;;;1999.90;999.90;;;5.10;99.90;;;;;;6739405;88;20185;-79
2023/02/11 09:42:07;;;;;;;1999.90;999.90;;;5.10;99.90;;;;;;6752476;88;21106;-79
2023/02/11 09:52:23;;;;;;;1999.90;999.90;;;5.30;99.90;;;;;;6756813;88;20164;-78
2023/02/11 10:02:43;;;;;;;;;;;5.30;99.90;;;;;;6758018;88;20224;-79
2023/02/11 10:13:03;;;;;;;1999.90;999.90;;;5.40;99.90;;;;;;6761243;88;20131;-78
2023/02/11 10:23:14;;;;;;;1999.90;999.90;;;5.50;99.90;;;;;;6758702;88;20216;-79
2023/02/11 10:33:23;;;;;;;1999.90;999.90;;;5.50;99.90;;;;;;6763319;88;20196;-79
2023/02/11 10:43:26;;;;;;;1999.90;999.90;;;5.80;99.90;;;;;;6759905;88;20225;-79
2023/02/11 10:53:27;;;;;;;1999.90;999.90;;;5.90;99.90;;;;;;6754871;88;20272;-79
2023/02/11 11:03:33;;;;;;;1999.90;999.90;;;5.90;99.90;;;;;;6738978;88;20189;-78
2023/02/11 11:13:39;;;;;;;1999.90;999.90;;;6.10;99.90;;;;;;6738527;88;20831;-78
2023/02/11 11:23:48;;;;;;;1999.90;999.90;;;6.20;99.90;;;;;;6741713;88;20669;-79
2023/02/11 11:33:51;;;;;;;1999.90;999.90;;;6.20;99.90;;;;;;6734445;88;20317;-77
2023/02/11 11:44:02;;;;;;;1999.90;999.90;;;6.30;99.90;;;;;;6723853;88;20678;-80
2023/02/11 11:54:07;;;;;;;1999.90;999.90;;;6.60;99.90;;;;;;6731111;88;20203;-77
2023/02/11 12:04:16;;;;;;;1999.90;999.90;;;6.50;99.90;;;;;;6752091;77;20706;-76
2023/02/11 12:14:51;;;;;;;1999.90;999.90;;;6.70;99.90;;;;;;6742842;88;20188;-77
2023/02/11 12:25:06;;;;;;;1999.90;999.90;;;6.80;99.90;;;;;;6749200;88;20616;-76
2023/02/11 12:35:23;;;;;;;1999.90;999.90;;;7.10;99.90;;;;;;6724096;88;20185;-76
2023/02/11 12:46:07;;;;;;;1999.90;999.90;;;7.20;99.90;;;;;;6729312;88;20664;-77
2023/02/11 12:56:22;;;;;;;1999.90;999.90;;;7.40;99.90;;;;;;6722929;88;20286;-76
2023/02/11 13:06:34;;;;;;;1999.90;999.90;;;7.30;99.90;;;;;;6732056;88;20213;-77
2023/02/11 13:16:40;;;;;;;1999.90;999.90;;;7.30;99.90;;;;;;6735169;88;20222;-77
2023/02/11 13:27:12;;;;;;;1999.90;999.90;;;7.30;99.90;;;;;;6737665;88;20173;-78
2023/02/11 13:37:25;;;;;;;1999.90;999.90;;;7.40;99.90;;;;;;6739255;88;20655;-76
2023/02/11 13:47:34;;;;;;;1999.90;999.90;;;7.50;99.90;;;;;;6744426;88;20200;-76
2023/02/11 13:57:37;;;;;;;1999.90;999.90;;;7.30;99.90;;;;;;6743787;88;20219;-76
2023/02/11 14:17:57;;;;;;;1999.90;999.90;;;7.80;99.90;;;;;;6739260;88;20619;-76
2023/02/11 14:28:31;;;;;;;1999.90;999.90;;;7.90;99.90;;;;;;6738029;88;20223;-75
2023/02/11 14:38:42;;;;;;;1999.90;999.90;;;7.90;99.90;;;;;;6731416;88;20206;-76
2023/02/11 14:48:49;;;;;;;1999.90;999.90;;;7.90;99.90;;;;;;6740706;88;20609;-77
2023/02/11 14:58:50;;;;;;;;;;;8.00;99.90;;;;;;6721197;88;20200;-76
2023/02/11 15:08:59;;;;;;;1999.90;999.90;;;8.00;99.90;;;;;;6722542;88;20191;-77
2023/02/11 15:19:03;;;;;;;1999.90;999.90;;;8.00;99.90;;;;;;6737763;88;20678;-77
2023/02/11 15:29:17;;;;;;;1999.90;999.90;;;8.00;99.90;;;;;;6736455;88;21040;-77
2023/02/11 15:39:34;;;;;;;1999.90;999.90;;;8.10;99.90;;;;;;6733717;88;20226;-77
2023/02/11 15:49:34;;;;;;;1999.90;999.90;;;8.20;99.90;;;;;;6738710;88;20209;-77
2023/02/11 15:59:38;;;;;;;1999.90;999.90;;;8.10;99.90;;;;;;6739567;88;20200;-77
2023/02/11 16:09:38;;;;;;;1999.90;999.90;;;8.10;99.90;;;;;;6737765;88;20207;-77
2023/02/11 16:19:47;;;;;;;1999.90;999.90;;;8.00;99.90;;;;;;6738616;88;20206;-76
2023/02/11 16:29:49;;;;;;;1999.90;999.90;;;7.90;99.90;;;;;;6737133;88;20732;-77
2023/02/11 16:39:57;;;;;;;1999.90;999.90;;;7.80;99.90;;;;;;6738235;88;20246;-75
2023/02/11 16:49:58;;;;;;;1999.90;999.90;;;7.80;99.90;;;;;;6739514;88;20246;-76
2023/02/11 16:59:58;;;;;;;1999.90;999.90;;;7.90;99.90;;;;;;6745350;88;20187;-76
2023/02/11 17:09:59;;;;;;;1999.90;999.90;;;7.70;99.90;;;;;;6744393;88;20207;-76
2023/02/11 17:20:00;;;;;;;1999.90;999.90;;;7.80;99.90;;;;;;6741196;88;20326;-78
2023/02/11 17:30:00;;;;;;;1999.90;999.90;;;7.70;99.90;;;;;;6739254;88;21011;-78
2023/02/11 17:40:01;;;;;;;1999.90;999.90;;;7.80;99.90;;;;;;6741240;88;20197;-77
2023/02/11 17:50:02;;;;;;;1999.90;999.90;;;7.70;99.90;;;;;;6742595;88;20963;-78
2023/02/11 18:10:12;;;;;;;1999.90;999.90;;;7.60;99.90;;;;;;6760434;88;20235;-79
2023/02/11 18:20:13;;;;;;;1999.90;999.90;;;7.60;99.90;;;;;;6759013;88;20205;-78
2023/02/11 18:30:16;;;;;;;1999.90;999.90;;;7.50;99.90;;;;;;6753323;88;20206;-80
2023/02/11 18:40:17;;;;;;;1999.90;999.90;;;7.50;99.90;;;;;;6759374;88;20615;-79
2023/02/11 18:50:19;;;;;;;1999.90;999.90;;;7.50;99.90;;;;;;6763757;87;20305;-80
2023/02/11 19:00:20;;;;;;;1999.90;999.90;;;7.60;99.90;;;;;;6741194;88;20295;-80
2023/02/11 19:10:21;;;;;;;1999.90;999.90;;;7.40;99.90;;;;;;6751760;88;20641;-81
2023/02/11 19:20:21;;;;;;;1999.90;999.90;;;7.50;99.90;;;;;;6762706;88;20330;-82
2023/02/11 19:30:22;;;;;;;1999.90;999.90;;;7.20;99.90;;;;;;6764845;88;20997;-81
2023/02/11 19:40:22;;;;;;;1999.90;999.90;;;7.10;99.90;;;;;;6764909;87;20221;-82
2023/02/11 19:50:23;;;;;;;1999.90;999.90;;;6.70;99.90;;;;;;6768901;88;20197;-80
2023/02/11 20:00:24;;;;;;;1999.90;999.90;;;6.30;99.90;;;;;;6768418;87;20210;-82
2023/02/11 20:10:24;;;;;;;1999.90;999.90;;;6.20;99.90;;;;;;6765215;88;21105;-79
2023/02/11 20:20:25;;;;;;;1999.90;999.90;;;6.40;99.90;;;;;;6769569;88;20184;-80
2023/02/11 20:30:25;;;;;;;1999.90;999.90;;;6.50;99.90;;;;;;6769467;87;20193;-82
2023/02/11 20:40:26;;;;;;;1999.90;999.90;;;6.40;99.90;;;;;;6768051;87;20196;-81
2023/02/11 20:50:26;;;;;;;1999.90;999.90;;;6.30;99.90;;;;;;6770889;88;20209;-81
2023/02/11 21:00:27;;;;;;;1999.90;999.90;;;6.30;99.90;;;;;;6768352;87;20586;-82
2023/02/11 21:10:27;;;;;;;1999.90;999.90;;;6.30;99.90;;;;;;6772367;88;20176;-82
2023/02/11 21:20:28;;;;;;;1999.90;999.90;;;6.30;99.90;;;;;;6763284;88;20220;-79
2023/02/11 21:30:28;;;;;;;1999.90;999.90;;;6.30;99.90;;;;;;6766732;87;20274;-79
2023/02/11 21:40:29;;;;;;;1999.90;999.90;;;6.50;99.90;;;;;;6777298;87;20278;-79
2023/02/11 21:50:29;;;;;;;1999.90;999.90;;;6.40;99.90;;;;;;6776950;87;20618;-78
2023/02/11 22:00:30;;;;;;;1999.90;999.90;;;6.30;99.90;;;;;;6782014;87;20822;-80
2023/02/11 22:10:31;;;;;;;1999.90;999.90;;;6.00;99.90;;;;;;6778249;87;20202;-79
2023/02/11 22:20:32;;;;;;;1999.90;999.90;;;5.80;99.90;;;;;;6773080;87;20213;-80
2023/02/11 22:30:32;;;;;;;1999.90;999.90;;;6.00;99.90;;;;;;6772253;87;20298;-80
2023/02/11 22:40:33;;;;;;;1999.90;999.90;;;6.10;99.90;;;;;;6769929;88;21186;-79
2023/02/11 22:50:34;;;;;;;1999.90;999.90;;;6.30;99.90;;;;;;6768772;87;20204;-79
2023/02/11 23:00:38;;;;;;;1999.90;999.90;;;6.20;99.90;;;;;;6756369;87;20317;-80
2023/02/11 23:10:39;;;;;;;1999.90;999.90;;;6.20;99.90;;;;;;6753474;87;20317;-79
2023/02/11 23:20:42;;;;;;;1999.90;999.90;;;6.20;99.90;;;;;;6757153;88;20801;-80
2023/02/11 23:30:42;;;;;;;1999.90;999.90;;;6.10;99.90;;;;;;6754103;88;20336;-78
2023/02/11 23:40:43;;;;;;;1999.90;999.90;;;6.30;99.90;;;;;;6745174;88;20298;-79
2023/02/11 23:50:43;;;;;;;1999.90;999.90;;;6.20;99.90;;;;;;6758042;88;20199;-79
